Time;durP1;ratioP1;P1;durP2;ratioP2;P2;SDS_P1;SDS_P2;PMS_P1;PMS_P2;Temp;Humidity;BMP_temperature;BMP_pressure;BME280_temperature;BME280_humidity;BME280_pressure;Samples;Min_cycle;Max_cycle;Signal;HPM_P1;HPM_P2
2023/08/28 00:01:37;;;;;;;0.30;0.30;;;;;;;-144.31;100.00;58022.63;5078467;28;20061;-64
2023/08/28 00:05:02;;;;;;;0.30;0.30;;;;;;;-144.31;100.00;58022.63;5075390;28;20036;-62
2023/08/28 00:08:28;;;;;;;0.30;0.30;;;;;;;-144.31;100.00;58022.63;5073148;28;20073;-63
2023/08/28 00:11:54;;;;;;;0.30;0.30;;;;;;;-144.31;100.00;58022.63;5074696;28;20031;-63
2023/08/28 00:15:18;;;;;;;0.30;0.30;;;;;;;-144.31;100.00;58022.63;5073038;28;20068;-62
2023/08/28 00:18:42;;;;;;;0.30;0.30;;;;;;;-144.31;100.00;58022.63;5074976;28;20389;-60
2023/08/28 00:22:06;;;;;;;0.30;0.30;;;;;;;-144.31;100.00;58022.63;5064782;28;20390;-62
2023/08/28 00:25:30;;;;;;;0.30;0.30;;;;;;;-144.31;100.00;58022.63;5075525;28;20382;-61
2023/08/28 00:28:54;;;;;;;0.30;0.30;;;;;;;-144.31;100.00;58022.63;5075383;28;20032;-62
2023/08/28 00:32:18;;;;;;;0.30;0.30;;;;;;;-144.31;100.00;58022.63;5076591;28;20028;-61
2023/08/28 00:35:42;;;;;;;0.30;0.30;;;;;;;-144.31;100.00;58022.63;5057148;28;20060;-63
2023/08/28 00:39:08;;;;;;;0.30;0.30;;;;;;;-144.31;100.00;58022.63;5055775;28;20083;-59
2023/08/28 00:42:32;;;;;;;0.30;0.30;;;;;;;-144.31;100.00;58022.63;5074312;28;20032;-61
2023/08/28 00:45:59;;;;;;;0.30;0.30;;;;;;;-144.31;100.00;58022.63;5058869;28;20093;-62
2023/08/28 00:49:23;;;;;;;0.30;0.30;;;;;;;-144.31;100.00;58022.63;5064917;28;20036;-61
2023/08/28 00:52:48;;;;;;;0.30;0.30;;;;;;;-144.31;100.00;58022.63;5057564;28;20533;-61
2023/08/28 00:56:11;;;;;;;0.30;0.30;;;;;;;-144.31;100.00;58022.63;5063156;28;20055;-62
2023/08/28 00:59:36;;;;;;;0.30;0.30;;;;;;;-144.31;100.00;58022.63;5059900;28;20037;-61
2023/08/28 01:03:00;;;;;;;0.30;0.30;;;;;;;-144.31;100.00;58022.63;5054765;28;20066;-64
2023/08/28 01:06:35;;;;;;;0.20;0.20;;;;;;;-144.31;100.00;58022.63;5056833;28;20049;-65
2023/08/28 01:10:25;;;;;;;0.30;0.30;;;;;;;-144.31;100.00;58022.63;5058284;28;20139;-61
2023/08/28 01:14:19;;;;;;;0.30;0.30;;;;;;;-144.31;100.00;58022.63;5021883;28;20547;-64
2023/08/28 01:17:48;;;;;;;0.30;0.30;;;;;;;-144.31;100.00;58022.63;5060084;28;20028;-63
2023/08/28 01:21:14;;;;;;;0.30;0.30;;;;;;;-144.31;100.00;58022.63;5058236;28;20051;-64
2023/08/28 01:24:48;;;;;;;0.30;0.30;;;;;;;-144.31;100.00;58022.63;5058111;28;20428;-63
2023/08/28 01:28:15;;;;;;;0.30;0.30;;;;;;;-144.31;100.00;58022.63;5074539;28;20060;-62
2023/08/28 01:31:39;;;;;;;0.30;0.30;;;;;;;-144.31;100.00;58022.63;5057897;28;20292;-63
2023/08/28 01:35:07;;;;;;;0.30;0.30;;;;;;;-144.31;100.00;58022.63;5059373;28;20036;-64
2023/08/28 01:39:04;;;;;;;0.30;0.30;;;;;;;-144.31;100.00;58022.63;5074990;28;20033;-63
2023/08/28 01:42:28;;;;;;;0.30;0.30;;;;;;;-144.31;100.00;58022.63;5060233;28;20037;-64
2023/08/28 01:45:53;;;;;;;0.30;0.30;;;;;;;-144.31;100.00;58022.63;5057803;28;20046;-61
2023/08/28 01:49:17;;;;;;;0.30;0.30;;;;;;;-144.31;100.00;58022.63;5062686;28;20040;-62
2023/08/28 01:52:47;;;;;;;0.30;0.30;;;;;;;-144.31;100.00;58022.63;5077018;28;20036;-61
2023/08/28 01:56:11;;;;;;;0.30;0.30;;;;;;;-144.31;100.00;58022.63;5073364;28;20215;-61
2023/08/28 01:59:36;;;;;;;0.30;0.30;;;;;;;-144.31;100.00;58022.63;5063098;28;20036;-64
2023/08/28 02:03:01;;;;;;;0.30;0.30;;;;;;;-144.31;100.00;58022.63;5059924;28;20048;-64
2023/08/28 02:06:25;;;;;;;0.30;0.30;;;;;;;-144.31;100.00;58022.63;5060437;28;20134;-62
2023/08/28 02:09:49;;;;;;;0.30;0.30;;;;;;;-144.31;100.00;58022.63;5060567;28;20093;-60
2023/08/28 02:13:13;;;;;;;0.30;0.30;;;;;;;-144.31;100.00;58022.63;5080380;28;20032;-61
2023/08/28 02:16:40;;;;;;;0.30;0.30;;;;;;;-144.31;100.00;58022.63;5063977;28;20032;-62
2023/08/28 02:20:05;;;;;;;0.30;0.30;;;;;;;-144.31;100.00;58022.63;5058899;28;20055;-62
2023/08/28 02:23:29;;;;;;;0.30;0.30;;;;;;;-144.31;100.00;58022.63;5060543;28;20133;-61
2023/08/28 02:26:53;;;;;;;0.30;0.30;;;;;;;-144.31;100.00;58022.63;5060338;28;20040;-62
2023/08/28 02:30:17;;;;;;;0.30;0.30;;;;;;;-144.31;100.00;58022.63;5062937;28;20250;-60
2023/08/28 02:33:41;;;;;;;0.30;0.30;;;;;;;-144.31;100.00;58022.63;5058553;28;20048;-62
2023/08/28 02:37:05;;;;;;;0.30;0.30;;;;;;;-144.31;100.00;58022.63;5056702;28;20473;-62
2023/08/28 02:40:29;;;;;;;0.30;0.30;;;;;;;-144.31;100.00;58022.63;5077727;28;20038;-62
2023/08/28 02:43:55;;;;;;;0.30;0.30;;;;;;;-144.31;100.00;58022.63;5057944;28;20093;-60
2023/08/28 02:47:18;;;;;;;0.30;0.30;;;;;;;-144.31;100.00;58022.63;5061114;28;20032;-61
2023/08/28 02:50:42;;;;;;;0.30;0.30;;;;;;;-144.31;100.00;58022.63;5059185;28;20044;-61
2023/08/28 02:54:06;;;;;;;0.30;0.30;;;;;;;-144.31;100.00;58022.63;5077497;28;20036;-60
2023/08/28 02:57:35;;;;;;;0.30;0.30;;;;;;;-144.31;100.00;58022.63;5077586;28;20036;-60
2023/08/28 03:00:59;;;;;;;0.30;0.30;;;;;;;-144.31;100.00;58022.63;5062459;28;20074;-61
2023/08/28 03:04:23;;;;;;;0.30;0.30;;;;;;;-144.31;100.00;58022.63;5072449;28;20512;-63
2023/08/28 03:07:47;;;;;;;0.30;0.30;;;;;;;-144.31;100.00;58022.63;5074604;28;20489;-63
2023/08/28 03:11:11;;;;;;;0.30;0.30;;;;;;;-144.31;100.00;58022.63;5061226;28;20040;-62
2023/08/28 03:14:35;;;;;;;0.30;0.30;;;;;;;-144.31;100.00;58022.63;5061834;28;20040;-60
2023/08/28 03:17:59;;;;;;;0.30;0.30;;;;;;;-144.31;100.00;58022.63;5077351;28;20385;-59
2023/08/28 03:21:23;;;;;;;0.30;0.30;;;;;;;-144.31;100.00;58022.63;5058146;28;20047;-63
2023/08/28 03:24:48;;;;;;;0.30;0.30;;;;;;;-144.31;100.00;58022.63;5077425;28;20063;-61
2023/08/28 03:28:12;;;;;;;0.30;0.30;;;;;;;-144.31;100.00;58022.63;5045617;28;20134;-60
2023/08/28 03:31:37;;;;;;;0.30;0.30;;;;;;;-144.31;100.00;58022.63;5068953;28;20119;-65
2023/08/28 03:35:00;;;;;;;0.30;0.30;;;;;;;-144.31;100.00;58022.63;5075984;28;20036;-60
2023/08/28 03:38:24;;;;;;;0.30;0.30;;;;;;;-144.31;100.00;58022.63;5060764;28;20173;-65
2023/08/28 03:41:48;;;;;;;0.30;0.30;;;;;;;-144.31;100.00;58022.63;5056148;28;20913;-61
2023/08/28 03:45:12;;;;;;;0.30;0.30;;;;;;;-144.31;100.00;58022.63;5066465;28;20051;-61
2023/08/28 03:48:37;;;;;;;0.30;0.30;;;;;;;-144.31;100.00;58022.63;5060692;28;20036;-61
2023/08/28 03:52:01;;;;;;;0.30;0.30;;;;;;;-144.31;100.00;58022.63;5078228;28;20040;-64
2023/08/28 03:55:27;;;;;;;0.32;0.32;;;;;;;-144.31;100.00;58022.63;5077523;28;20346;-61
2023/08/28 03:58:52;;;;;;;0.30;0.30;;;;;;;-144.31;100.00;58022.63;5062387;28;20461;-59
2023/08/28 04:02:16;;;;;;;0.30;0.30;;;;;;;-144.31;100.00;58022.63;5062776;28;20516;-60
2023/08/28 04:05:42;;;;;;;0.30;0.30;;;;;;;-144.31;100.00;58022.63;5060972;28;20292;-60
2023/08/28 04:09:06;;;;;;;;;;;;;;;-144.31;100.00;58022.63;5059085;28;20040;-62
2023/08/28 04:12:31;;;;;;;0.30;0.30;;;;;;;-144.31;100.00;58022.63;5076313;28;20398;-61
2023/08/28 04:15:56;;;;;;;0.30;0.30;;;;;;;-144.31;100.00;58022.63;5077026;28;20470;-61
2023/08/28 04:19:20;;;;;;;0.30;0.30;;;;;;;-144.31;100.00;58022.63;5049863;28;20122;-61
2023/08/28 04:22:44;;;;;;;0.30;0.30;;;;;;;-144.31;100.00;58022.63;5060102;28;20389;-62
2023/08/28 04:26:11;;;;;;;0.40;0.40;;;;;;;-144.31;100.00;58022.63;5080239;28;20047;-62
2023/08/28 04:29:35;;;;;;;0.40;0.40;;;;;;;-144.31;100.00;58022.63;5048052;28;20036;-60
2023/08/28 04:32:59;;;;;;;0.30;0.30;;;;;;;-144.31;100.00;58022.63;5060201;28;20159;-60
2023/08/28 04:36:23;;;;;;;0.30;0.30;;;;;;;-144.31;100.00;58022.63;5063152;28;20093;-60
2023/08/28 04:39:47;;;;;;;0.30;0.30;;;;;;;-144.31;100.00;58022.63;5073301;28;20036;-63
2023/08/28 04:43:12;;;;;;;0.30;0.30;;;;;;;-144.31;100.00;58022.63;5077107;28;20034;-60
2023/08/28 04:46:36;;;;;;;0.30;0.30;;;;;;;-144.31;100.00;58022.63;5077361;28;20032;-61
2023/08/28 04:50:00;;;;;;;0.30;0.30;;;;;;;-144.31;100.00;58022.63;5065569;28;20066;-62
2023/08/28 04:53:24;;;;;;;0.30;0.30;;;;;;;-144.31;100.00;58022.63;5061839;28;20111;-62
2023/08/28 04:56:48;;;;;;;0.30;0.30;;;;;;;-144.31;100.00;58022.63;5059509;28;20041;-61
2023/08/28 05:00:12;;;;;;;0.30;0.30;;;;;;;-144.31;100.00;58022.63;5063048;28;20055;-63
2023/08/28 05:03:38;;;;;;;0.40;0.40;;;;;;;-144.31;100.00;58022.63;5058131;28;20032;-64
2023/08/28 05:07:03;;;;;;;0.30;0.30;;;;;;;-144.31;100.00;58022.63;5075241;28;20041;-61
2023/08/28 05:10:27;;;;;;;0.30;0.30;;;;;;;-144.31;100.00;58022.63;5055747;28;20051;-61
2023/08/28 05:13:51;;;;;;;0.30;0.30;;;;;;;-144.31;100.00;58022.63;5062151;28;20040;-62
2023/08/28 05:17:15;;;;;;;0.30;0.30;;;;;;;-144.31;100.00;58022.63;5076066;28;20139;-62
2023/08/28 05:20:40;;;;;;;0.30;0.30;;;;;;;-144.31;100.00;58022.63;5075741;28;20535;-60
2023/08/28 05:24:05;;;;;;;0.30;0.30;;;;;;;-144.31;100.00;58022.63;5063177;28;20127;-61
2023/08/28 05:27:29;;;;;;;0.30;0.30;;;;;;;-144.31;100.00;58022.63;5064350;28;20552;-61
2023/08/28 05:30:53;;;;;;;0.30;0.30;;;;;;;-144.31;100.00;58022.63;5063314;28;20113;-61
2023/08/28 05:34:17;;;;;;;0.30;0.30;;;;;;;-144.31;100.00;58022.63;5062444;28;20330;-62
2023/08/28 05:37:41;;;;;;;0.30;0.30;;;;;;;-144.31;100.00;58022.63;5060885;28;20029;-62
2023/08/28 05:41:05;;;;;;;0.30;0.30;;;;;;;-144.31;100.00;58022.63;5062746;28;20035;-62
2023/08/28 05:44:29;;;;;;;0.30;0.30;;;;;;;-144.31;100.00;58022.63;5064398;28;20082;-61
2023/08/28 05:47:53;;;;;;;0.30;0.30;;;;;;;-144.31;100.00;58022.63;5076953;28;20036;-63
2023/08/28 05:51:17;;;;;;;0.30;0.30;;;;;;;-144.31;100.00;58022.63;5066418;28;20035;-61
2023/08/28 05:54:41;;;;;;;0.30;0.30;;;;;;;-144.31;100.00;58022.63;5057342;28;20032;-61
2023/08/28 05:58:05;;;;;;;0.30;0.30;;;;;;;-144.31;100.00;58022.63;5057838;28;20383;-60
2023/08/28 06:01:26;;;;;;;0.30;0.30;;;;;;;-144.31;100.00;58022.63;5057059;28;20524;-62
2023/08/28 06:04:53;;;;;;;0.30;0.30;;;;;;;-144.31;100.00;58022.63;5059221;28;20464;-60
2023/08/28 06:08:17;;;;;;;0.30;0.30;;;;;;;-144.31;100.00;58022.63;5073608;28;20533;-62
2023/08/28 06:11:42;;;;;;;0.30;0.30;;;;;;;-144.31;100.00;58022.63;5041742;28;20094;-60
2023/08/28 06:15:07;;;;;;;0.30;0.30;;;;;;;-144.31;100.00;58022.63;5073141;28;20131;-60
2023/08/28 06:18:31;;;;;;;0.30;0.30;;;;;;;-144.31;100.00;58022.63;5073632;28;20115;-61
2023/08/28 06:21:55;;;;;;;0.30;0.30;;;;;;;-144.31;100.00;58022.63;5053117;28;20040;-60
2023/08/28 06:25:19;;;;;;;0.30;0.30;;;;;;;-144.31;100.00;58022.63;5073404;28;20032;-61
2023/08/28 06:28:43;;;;;;;0.30;0.30;;;;;;;-144.31;100.00;58022.63;5074827;28;20115;-61
2023/08/28 06:32:09;;;;;;;0.30;0.30;;;;;;;-144.31;100.00;58022.63;5059616;28;20117;-64
2023/08/28 06:35:33;;;;;;;0.30;0.30;;;;;;;-144.31;100.00;58022.63;5073304;28;20024;-60
2023/08/28 06:38:57;;;;;;;0.30;0.30;;;;;;;-144.31;100.00;58022.63;5071481;28;20360;-61
2023/08/28 06:42:21;;;;;;;0.30;0.30;;;;;;;-144.31;100.00;58022.63;5073166;28;20032;-61
2023/08/28 06:45:45;;;;;;;0.22;0.22;;;;;;;-144.31;100.00;58022.63;5070828;28;20772;-61
2023/08/28 06:49:09;;;;;;;0.25;0.25;;;;;;;-144.31;100.00;58022.63;5073617;28;20071;-61
2023/08/28 06:52:33;;;;;;;0.30;0.30;;;;;;;-144.31;100.00;58022.63;5062810;28;20039;-62
2023/08/28 06:55:57;;;;;;;0.20;0.20;;;;;;;-144.31;100.00;58022.63;5071335;28;20036;-60
2023/08/28 06:59:21;;;;;;;0.20;0.20;;;;;;;-144.31;100.00;58022.63;5060252;28;20470;-60
2023/08/28 07:02:45;;;;;;;0.30;0.30;;;;;;;-144.31;100.00;58022.63;5076352;28;20129;-60
2023/08/28 07:06:09;;;;;;;0.20;0.20;;;;;;;-144.31;100.00;58022.63;5075822;28;20032;-60
2023/08/28 07:09:33;;;;;;;0.20;0.20;;;;;;;-144.31;100.00;58022.63;5058527;28;20028;-61
2023/08/28 07:12:59;;;;;;;;;;;;;;;-144.31;100.00;58022.63;5076833;28;20439;-63
2023/08/28 07:16:29;;;;;;;0.30;0.30;;;;;;;-144.31;100.00;58022.63;5073190;28;19916;-60
2023/08/28 07:19:53;;;;;;;0.20;0.20;;;;;;;-144.31;100.00;58022.63;5069954;28;20028;-63
2023/08/28 07:23:17;;;;;;;0.22;0.22;;;;;;;-144.31;100.00;58022.63;5058349;28;20032;-61
2023/08/28 07:26:41;;;;;;;0.20;0.20;;;;;;;-144.31;100.00;58022.63;5073475;28;20062;-62
2023/08/28 07:30:05;;;;;;;0.20;0.20;;;;;;;-144.31;100.00;58022.63;5069315;28;20059;-61
2023/08/28 07:33:30;;;;;;;0.20;0.20;;;;;;;-144.31;100.00;58022.63;5071601;28;20036;-60
2023/08/28 07:36:55;;;;;;;0.30;0.30;;;;;;;-144.31;100.00;58022.63;5068099;28;20120;-62
2023/08/28 07:40:19;;;;;;;0.20;0.20;;;;;;;-144.31;100.00;58022.63;5070976;28;20043;-61
2023/08/28 07:43:44;;;;;;;0.30;0.30;;;;;;;-144.31;100.00;58022.63;5072867;28;20044;-60
2023/08/28 07:47:08;;;;;;;0.20;0.20;;;;;;;-144.31;100.00;58022.63;5075609;28;20033;-62
2023/08/28 07:50:35;;;;;;;0.30;0.30;;;;;;;-144.31;100.00;58022.63;5080913;28;20048;-61
2023/08/28 07:54:01;;;;;;;0.30;0.30;;;;;;;-144.31;100.00;58022.63;5073573;28;20453;-60
2023/08/28 07:57:25;;;;;;;0.20;0.20;;;;;;;-144.31;100.00;58022.63;5072551;28;20044;-63
2023/08/28 08:00:48;;;;;;;0.20;0.20;;;;;;;-144.31;100.00;58022.63;5073759;28;20113;-62
2023/08/28 08:04:13;;;;;;;0.20;0.20;;;;;;;-144.31;100.00;58022.63;5077514;28;20036;-64
2023/08/28 08:07:39;;;;;;;0.20;0.20;;;;;;;-144.31;100.00;58022.63;5074709;28;20046;-62
2023/08/28 08:11:04;;;;;;;0.20;0.20;;;;;;;-144.31;100.00;58022.63;5077677;28;20471;-64
2023/08/28 08:14:28;;;;;;;0.20;0.20;;;;;;;-144.31;100.00;58022.63;5070323;28;20115;-62
2023/08/28 08:17:52;;;;;;;0.20;0.20;;;;;;;-144.31;100.00;58022.63;5075043;28;20035;-60
2023/08/28 08:21:16;;;;;;;0.10;0.10;;;;;;;-144.31;100.00;58022.63;5067985;28;21281;-60
2023/08/28 08:24:40;;;;;;;0.20;0.20;;;;;;;-144.31;100.00;58022.63;5054950;28;20045;-60
2023/08/28 08:28:04;;;;;;;0.20;0.20;;;;;;;-144.31;100.00;58022.63;5056347;28;20115;-62
2023/08/28 08:31:28;;;;;;;0.17;0.17;;;;;;;-144.31;100.00;58022.63;5074562;28;20040;-61
2023/08/28 08:34:52;;;;;;;0.20;0.20;;;;;;;-144.31;100.00;58022.63;5072277;28;20462;-61
2023/08/28 08:38:17;;;;;;;0.10;0.10;;;;;;;-144.31;100.00;58022.63;5050341;28;20482;-61
2023/08/28 08:41:42;;;;;;;0.20;0.20;;;;;;;-144.31;100.00;58022.63;5069886;28;20037;-62
2023/08/28 08:45:07;;;;;;;0.20;0.20;;;;;;;-144.31;100.00;58022.63;5070393;28;20032;-61
2023/08/28 08:48:34;;;;;;;0.20;0.20;;;;;;;-144.31;100.00;58022.63;5073689;28;20028;-61
2023/08/28 08:52:04;;;;;;;0.10;0.10;;;;;;;-144.31;100.00;58022.63;5073486;28;20043;-63
2023/08/28 08:55:42;;;;;;;0.20;0.20;;;;;;;-144.31;100.00;58022.63;5075358;28;20192;-62
2023/08/28 08:59:10;;;;;;;0.20;0.20;;;;;;;-144.31;100.00;58022.63;5068455;28;20051;-62
2023/08/28 09:02:35;;;;;;;0.20;0.20;;;;;;;-144.31;100.00;58022.63;5067978;28;20028;-62
2023/08/28 09:06:00;;;;;;;0.20;0.20;;;;;;;-144.31;100.00;58022.63;5068698;28;20043;-62
2023/08/28 09:09:24;;;;;;;0.20;0.20;;;;;;;-144.31;100.00;58022.63;5067292;28;20509;-61
2023/08/28 09:12:49;;;;;;;0.20;0.20;;;;;;;-144.31;100.00;58022.63;5073446;28;20635;-61
2023/08/28 09:16:14;;;;;;;0.20;0.20;;;;;;;-144.31;100.00;58022.63;5060934;28;20098;-61
2023/08/28 09:19:38;;;;;;;0.10;0.10;;;;;;;-144.31;100.00;58022.63;5070246;28;20036;-61
2023/08/28 09:23:02;;;;;;;0.20;0.20;;;;;;;-144.31;100.00;58022.63;5066403;28;20111;-61
2023/08/28 09:26:26;;;;;;;0.20;0.20;;;;;;;-144.31;100.00;58022.63;5064679;28;20043;-61
2023/08/28 09:29:56;;;;;;;0.10;0.10;;;;;;;-144.31;100.00;58022.63;5066339;28;20496;-61
2023/08/28 09:33:25;;;;;;;0.17;0.17;;;;;;;-144.31;100.00;58022.63;5064571;28;20457;-63
2023/08/28 09:36:49;;;;;;;0.10;0.10;;;;;;;-144.31;100.00;58022.63;5074122;28;20059;-62
2023/08/28 09:40:12;;;;;;;0.10;0.10;;;;;;;-144.31;100.00;58022.63;5057616;28;20091;-62
2023/08/28 09:43:37;;;;;;;0.20;0.20;;;;;;;-144.31;100.00;58022.63;5073605;28;20149;-62
2023/08/28 09:47:04;;;;;;;0.20;0.20;;;;;;;-144.31;100.00;58022.63;5068032;28;20032;-63
2023/08/28 09:50:29;;;;;;;0.20;0.20;;;;;;;-144.31;100.00;58022.63;5065917;28;20068;-61
2023/08/28 09:53:59;;;;;;;0.20;0.20;;;;;;;-144.31;100.00;58022.63;5058061;28;20123;-62
2023/08/28 09:57:28;;;;;;;0.10;0.10;;;;;;;-144.31;100.00;58022.63;5066374;28;20027;-63
2023/08/28 10:00:54;;;;;;;0.10;0.10;;;;;;;-144.31;100.00;58022.63;5069955;28;20048;-61
2023/08/28 10:04:19;;;;;;;0.20;0.20;;;;;;;-144.31;100.00;58022.63;5072242;28;20119;-62
2023/08/28 10:07:44;;;;;;;;;;;;;;;-144.31;100.00;58022.63;5080238;28;20051;-62
2023/08/28 10:11:09;;;;;;;;;;;;;;;-144.31;100.00;58022.63;5067685;28;20631;-62
2023/08/28 10:14:34;;;;;;;0.10;0.10;;;;;;;-144.31;100.00;58022.63;5064654;28;19912;-64
2023/08/28 10:18:08;;;;;;;0.10;0.10;;;;;;;-144.31;100.00;58022.63;5070984;28;20035;-62
2023/08/28 10:21:32;;;;;;;0.10;0.10;;;;;;;-144.31;100.00;58022.63;5049558;28;20051;-62
2023/08/28 10:24:57;;;;;;;0.10;0.10;;;;;;;-144.31;100.00;58022.63;5072810;28;20555;-62
2023/08/28 10:28:23;;;;;;;0.10;0.10;;;;;;;-144.31;100.00;58022.63;5053416;28;20044;-62
2023/08/28 10:31:49;;;;;;;0.10;0.10;;;;;;;-144.31;100.00;58022.63;5066535;28;20110;-61
2023/08/28 10:35:14;;;;;;;0.13;0.13;;;;;;;-144.31;100.00;58022.63;5068998;28;20510;-62
2023/08/28 10:38:39;;;;;;;0.13;0.13;;;;;;;-144.31;100.00;58022.63;5066901;28;20040;-62
2023/08/28 10:42:04;;;;;;;0.15;0.15;;;;;;;-144.31;100.00;58022.63;5067360;28;20040;-62
2023/08/28 10:45:29;;;;;;;0.20;0.20;;;;;;;-144.31;100.00;58022.63;5078891;28;20119;-62
2023/08/28 10:48:57;;;;;;;0.10;0.10;;;;;;;-144.31;100.00;58022.63;5077577;28;20040;-63
2023/08/28 10:52:28;;;;;;;0.10;0.10;;;;;;;-144.31;100.00;58022.63;5079800;28;20703;-62
2023/08/28 10:55:59;;;;;;;0.20;0.20;;;;;;;-144.31;100.00;58022.63;5051464;28;20028;-63
2023/08/28 10:59:27;;;;;;;0.10;0.10;;;;;;;-144.31;100.00;58022.63;5073132;28;20508;-63
2023/08/28 11:03:03;;;;;;;0.10;0.10;;;;;;;-144.31;100.00;58022.63;5053088;28;20391;-62
2023/08/28 11:06:42;;;;;;;0.10;0.10;;;;;;;-144.31;100.00;58022.63;5072589;28;20044;-63
2023/08/28 11:10:25;;;;;;;0.10;0.10;;;;;;;-144.31;100.00;58022.63;5068385;28;20051;-64
2023/08/28 11:14:13;;;;;;;0.10;0.10;;;;;;;-144.31;100.00;58022.63;5074042;28;20048;-62
2023/08/28 11:17:37;;;;;;;0.15;0.15;;;;;;;-144.31;100.00;58022.63;5076555;28;20102;-63
2023/08/28 11:21:08;;;;;;;0.10;0.10;;;;;;;-144.31;100.00;58022.63;5075252;28;20036;-63
2023/08/28 11:24:35;;;;;;;0.10;0.10;;;;;;;-144.31;100.00;58022.63;5076318;28;20102;-63
2023/08/28 11:28:00;;;;;;;0.10;0.10;;;;;;;-144.31;100.00;58022.63;5069911;28;20040;-63
2023/08/28 11:31:33;;;;;;;0.10;0.10;;;;;;;-144.31;100.00;58022.63;5068581;28;20047;-63
2023/08/28 11:34:58;;;;;;;0.10;0.10;;;;;;;-144.31;100.00;58022.63;5068232;28;20028;-64
2023/08/28 11:38:32;;;;;;;0.10;0.10;;;;;;;-144.31;100.00;58022.63;5069305;28;20074;-67
2023/08/28 11:41:57;;;;;;;0.10;0.10;;;;;;;-144.31;100.00;58022.63;5074423;28;20451;-64
2023/08/28 11:45:22;;;;;;;0.10;0.10;;;;;;;-144.31;100.00;58022.63;5075935;28;20043;-63
2023/08/28 11:48:48;;;;;;;;;;;;;;;-144.31;100.00;58022.63;5073208;28;20047;-63
2023/08/28 11:52:16;;;;;;;0.10;0.10;;;;;;;-144.31;100.00;58022.63;5073283;28;20463;-63
2023/08/28 11:55:40;;;;;;;0.10;0.10;;;;;;;-144.31;100.00;58022.63;5068022;28;20396;-63
2023/08/28 11:59:07;;;;;;;0.10;0.10;;;;;;;-144.31;100.00;58022.63;5070717;28;20036;-63
2023/08/28 12:02:32;;;;;;;0.10;0.10;;;;;;;-144.31;100.00;58022.63;5069304;28;20531;-64
2023/08/28 12:06:00;;;;;;;0.10;0.10;;;;;;;-144.31;100.00;58022.63;5073993;28;20036;-62
2023/08/28 12:09:24;;;;;;;0.10;0.10;;;;;;;-144.31;100.00;58022.63;5055334;28;20043;-63
2023/08/28 12:12:52;;;;;;;0.10;0.10;;;;;;;-144.31;100.00;58022.63;5080208;28;20028;-63
2023/08/28 12:16:19;;;;;;;0.10;0.10;;;;;;;-144.31;100.00;58022.63;5069943;28;20037;-63
2023/08/28 12:19:48;;;;;;;0.10;0.10;;;;;;;-144.31;100.00;58022.63;5058468;28;20029;-63
2023/08/28 12:23:13;;;;;;;0.10;0.10;;;;;;;-144.31;100.00;58022.63;5074661;28;20032;-62
2023/08/28 12:26:40;;;;;;;0.10;0.10;;;;;;;-144.31;100.00;58022.63;5069583;28;20032;-63
2023/08/28 12:30:04;;;;;;;0.10;0.10;;;;;;;-144.31;100.00;58022.63;5075299;28;20413;-63
2023/08/28 12:33:28;;;;;;;0.10;0.10;;;;;;;-144.31;100.00;58022.63;5058094;28;20119;-63
2023/08/28 12:36:52;;;;;;;0.10;0.10;;;;;;;-144.31;100.00;58022.63;5070453;28;20044;-63
2023/08/28 12:40:17;;;;;;;0.10;0.10;;;;;;;-144.31;100.00;58022.63;5067374;28;20032;-63
2023/08/28 12:43:41;;;;;;;0.10;0.10;;;;;;;-144.31;100.00;58022.63;5056287;28;20032;-63
2023/08/28 12:47:05;;;;;;;0.10;0.10;;;;;;;-144.31;100.00;58022.63;5068394;28;20182;-63
2023/08/28 12:50:29;;;;;;;0.10;0.10;;;;;;;-144.31;100.00;58022.63;5074879;28;20037;-63
2023/08/28 12:53:53;;;;;;;0.10;0.10;;;;;;;-144.31;100.00;58022.63;5054561;28;20048;-62
2023/08/28 12:57:17;;;;;;;0.10;0.10;;;;;;;-144.31;100.00;58022.63;5073860;28;20111;-62
2023/08/28 13:00:41;;;;;;;0.10;0.10;;;;;;;-144.31;100.00;58022.63;5050945;28;20028;-62
2023/08/28 13:04:05;;;;;;;0.10;0.10;;;;;;;-144.31;100.00;58022.63;5067402;28;20033;-62
2023/08/28 13:07:29;;;;;;;0.10;0.10;;;;;;;-144.31;100.00;58022.63;5063249;28;20543;-62
2023/08/28 13:10:53;;;;;;;0.10;0.10;;;;;;;-144.31;100.00;58022.63;5069141;28;20060;-62
2023/08/28 13:14:18;;;;;;;0.10;0.10;;;;;;;-144.31;100.00;58022.63;5072052;28;20040;-62
2023/08/28 13:17:42;;;;;;;0.10;0.10;;;;;;;-144.31;100.00;58022.63;5075609;28;20073;-63
2023/08/28 13:21:07;;;;;;;0.10;0.10;;;;;;;-144.31;100.00;58022.63;5069190;28;20032;-62
2023/08/28 13:24:32;;;;;;;0.10;0.10;;;;;;;-144.31;100.00;58022.63;5058340;28;20032;-64
2023/08/28 13:27:56;;;;;;;0.10;0.10;;;;;;;-144.31;100.00;58022.63;5049402;28;20525;-63
2023/08/28 13:31:19;;;;;;;0.10;0.10;;;;;;;-144.31;100.00;58022.63;5048996;28;20027;-62
2023/08/28 13:34:44;;;;;;;0.10;0.10;;;;;;;-144.31;100.00;58022.63;5073984;28;20085;-62
2023/08/28 13:38:07;;;;;;;0.10;0.10;;;;;;;-144.31;100.00;58022.63;5071646;28;20390;-62
2023/08/28 13:41:31;;;;;;;0.10;0.10;;;;;;;-144.31;100.00;58022.63;5072393;28;20051;-62
2023/08/28 13:44:58;;;;;;;0.20;0.20;;;;;;;-144.31;100.00;58022.63;5067630;28;20032;-62
2023/08/28 13:48:24;;;;;;;0.10;0.10;;;;;;;-144.31;100.00;58022.63;5065440;28;20033;-63
2023/08/28 13:51:50;;;;;;;0.10;0.10;;;;;;;-144.31;100.00;58022.63;5068223;28;20027;-62
2023/08/28 13:55:13;;;;;;;0.10;0.10;;;;;;;-144.31;100.00;58022.63;5068231;28;20032;-63
2023/08/28 13:58:37;;;;;;;0.10;0.10;;;;;;;-144.31;100.00;58022.63;5072259;28;20115;-62
2023/08/28 14:02:01;;;;;;;0.10;0.10;;;;;;;-144.31;100.00;58022.63;5072533;28;20147;-63
2023/08/28 14:05:25;;;;;;;0.20;0.20;;;;;;;-144.31;100.00;58022.63;5068205;28;20538;-63
2023/08/28 14:08:49;;;;;;;0.10;0.10;;;;;;;-144.31;100.00;58022.63;5068801;28;20052;-63
2023/08/28 14:12:13;;;;;;;0.10;0.10;;;;;;;-144.31;100.00;58022.63;5070507;28;20126;-63
2023/08/28 14:15:37;;;;;;;0.20;0.20;;;;;;;-144.31;100.00;58022.63;5067189;28;20027;-63
2023/08/28 14:19:01;;;;;;;0.10;0.10;;;;;;;-144.31;100.00;58022.63;5072666;28;20036;-63
2023/08/28 14:22:25;;;;;;;0.10;0.10;;;;;;;-144.31;100.00;58022.63;5073991;28;20032;-62
2023/08/28 14:25:50;;;;;;;0.10;0.10;;;;;;;-144.31;100.00;58022.63;5072439;28;20036;-63
2023/08/28 14:29:14;;;;;;;0.20;0.20;;;;;;;-144.31;100.00;58022.63;5067609;28;20032;-63
2023/08/28 14:32:38;;;;;;;0.10;0.10;;;;;;;-144.31;100.00;58022.63;5069184;28;20033;-63
2023/08/28 14:36:02;;;;;;;0.10;0.10;;;;;;;-144.31;100.00;58022.63;5065725;28;20068;-62
2023/08/28 14:39:27;;;;;;;0.10;0.10;;;;;;;-144.31;100.00;58022.63;5071188;28;20048;-63
2023/08/28 14:42:51;;;;;;;0.20;0.20;;;;;;;-144.31;100.00;58022.63;5071982;28;20028;-63
2023/08/28 14:46:15;;;;;;;0.10;0.10;;;;;;;-144.31;100.00;58022.63;5063913;28;20110;-63
2023/08/28 14:49:39;;;;;;;0.10;0.10;;;;;;;-144.31;100.00;58022.63;5067070;28;20273;-63
2023/08/28 14:53:04;;;;;;;0.10;0.10;;;;;;;-144.31;100.00;58022.63;5066987;28;20095;-63
2023/08/28 14:56:28;;;;;;;0.20;0.20;;;;;;;-144.31;100.00;58022.63;5050297;28;20143;-63
2023/08/28 14:59:54;;;;;;;0.10;0.10;;;;;;;-144.31;100.00;58022.63;5064498;28;20093;-63
2023/08/28 15:03:19;;;;;;;0.10;0.10;;;;;;;-144.31;100.00;58022.63;5072251;28;20539;-63
2023/08/28 15:06:43;;;;;;;0.17;0.17;;;;;;;-144.31;100.00;58022.63;5071867;28;20047;-63
2023/08/28 15:10:07;;;;;;;0.20;0.20;;;;;;;-144.31;100.00;58022.63;5054858;28;20296;-63
2023/08/28 15:13:31;;;;;;;0.20;0.20;;;;;;;-144.31;100.00;58022.63;5065644;28;20028;-63
2023/08/28 15:16:55;;;;;;;0.10;0.10;;;;;;;-144.31;100.00;58022.63;5053386;28;20032;-62
2023/08/28 15:20:19;;;;;;;0.20;0.20;;;;;;;-144.31;100.00;58022.63;5066949;28;20355;-63
2023/08/28 15:23:43;;;;;;;0.10;0.10;;;;;;;-144.31;100.00;58022.63;5060084;28;20393;-62
2023/08/28 15:27:07;;;;;;;0.20;0.20;;;;;;;-144.31;100.00;58022.63;5071432;28;20482;-62
2023/08/28 15:30:33;;;;;;;0.20;0.20;;;;;;;-144.31;100.00;58022.63;5073091;28;20036;-63
2023/08/28 15:33:57;;;;;;;0.20;0.20;;;;;;;-144.31;100.00;58022.63;5069229;28;20047;-63